Skip Navigation Links Skip Navigation Links

Current Weather

Igloolik Airport, Nunavut

For information only: do not use for flight planning or navigation.
Latest weather
Observation time Friday, May 25, 2018 8:00 AM EDT
Local time Friday, May 25, 2018 8:41 AM EDT
Flight conditions Marginal Visual Meteorological Conditions
Winds
Wind direction West-Northwest (290°)
Wind speed 16 mph
Visibility 15 mi.
Sky condition
Ceiling 1,700 ft. broken clouds
Cloud layer scattered clouds 1,500 ft.
Cloud layer broken clouds 1,700 ft.
Cloud layer overcast 2,000 ft.
Temperature 19°F
Dewpoint 16°F
Altimeter 29.95 in.Hg
Derived measurements
Relative humidity 86%
Wind chill 5°F
Density altitude -2662 ft.
Sea-level pressure 29.97 in.Hg
METAR CYGT 251200Z 29014KT 15SM SCT015 BKN017 OVC020 M07/M09 A2995 RMK SC3SC3SC2 SLP150

Settings

Location code

InnerDrive.Weather 4.0.6615.0 Release CLR 4.0.30319.42000
Copyright ©2018 Inner Drive Technology. All rights reserved. Portions Copyright ©1986-2018 David Braverman.

Find weather

Site navigation


Skip Navigation Links

Place info

Page info

PayPal - The safer, easier way to pay online!

Return home.

Copyright ©2018 Inner Drive Technology. Purveyors of fine, hand-crafted computer software. Page printed 2018-05-25T12:41:58 UTC.